Time;durP1;ratioP1;P1;durP2;ratioP2;P2;SDS_P1;SDS_P2;PMS_P1;PMS_P2;Temp;Humidity;BMP_temperature;BMP_pressure;BME280_temperature;BME280_humidity;BME280_pressure;Samples;Min_cycle;Max_cycle;Signal;HPM_P1;HPM_P2
2022/11/20 00:00:56;;;;;;;49.10;28.20;;;3.90;99.90;;;;;;4994828;28;20257;-69
2022/11/20 00:03:23;;;;;;;46.03;26.77;;;4.00;99.90;;;;;;4994748;28;20285;-69
2022/11/20 00:05:48;;;;;;;51.53;27.70;;;4.00;99.90;;;;;;4994852;28;20183;-69
2022/11/20 00:08:14;;;;;;;49.10;29.07;;;3.80;99.90;;;;;;4994894;28;20167;-69
2022/11/20 00:10:43;;;;;;;51.13;27.67;;;3.80;99.90;;;;;;4994652;28;20631;-69
2022/11/20 00:13:08;;;;;;;54.87;29.90;;;3.70;99.90;;;;;;4994263;28;20549;-70
2022/11/20 00:15:37;;;;;;;48.30;27.80;;;3.80;99.90;;;;;;4994576;28;20167;-70
2022/11/20 00:18:02;;;;;;;43.83;27.23;;;3.80;99.90;;;;;;4993484;28;20198;-69
2022/11/20 00:20:28;;;;;;;48.77;28.03;;;3.90;99.90;;;;;;4994537;28;20623;-69
2022/11/20 00:22:53;;;;;;;47.07;28.27;;;4.00;99.90;;;;;;4994465;28;20175;-70
2022/11/20 00:25:19;;;;;;;46.83;27.27;;;3.90;99.90;;;;;;4994389;28;20210;-69
2022/11/20 00:27:45;;;;;;;56.20;28.27;;;4.00;99.90;;;;;;4994060;28;20250;-69
2022/11/20 00:30:13;;;;;;;47.80;27.40;;;4.00;99.90;;;;;;4994390;28;20178;-69
2022/11/20 00:32:38;;;;;;;52.87;29.00;;;4.00;99.90;;;;;;4994165;28;20179;-68
2022/11/20 00:35:07;;;;;;;46.57;27.50;;;3.90;99.90;;;;;;4993990;28;20171;-69
2022/11/20 00:37:33;;;;;;;51.47;29.13;;;4.00;99.90;;;;;;4993845;28;20234;-70
2022/11/20 00:39:58;;;;;;;53.23;29.33;;;4.10;99.90;;;;;;4994221;28;20172;-69
2022/11/20 00:42:25;;;;;;;54.60;29.97;;;4.30;99.90;;;;;;4993807;28;20203;-69
2022/11/20 00:44:51;;;;;;;52.30;28.60;;;4.20;99.90;;;;;;4994055;28;20207;-69
2022/11/20 00:47:16;;;;;;;55.70;28.83;;;4.00;99.90;;;;;;4993926;28;20586;-69
2022/11/20 00:49:42;;;;;;;51.73;30.53;;;4.00;99.90;;;;;;4993879;28;20278;-69
2022/11/20 00:52:07;;;;;;;49.87;28.60;;;4.10;99.90;;;;;;4992825;28;20203;-68
2022/11/20 00:54:33;;;;;;;54.40;28.97;;;4.10;99.90;;;;;;4993942;28;20595;-68
2022/11/20 00:57:01;;;;;;;52.63;28.73;;;4.20;99.90;;;;;;4993657;28;20175;-69
2022/11/20 00:59:27;;;;;;;54.47;30.77;;;4.10;99.90;;;;;;4993882;28;20234;-69
2022/11/20 01:01:53;;;;;;;56.93;31.30;;;4.20;99.90;;;;;;4993666;28;20195;-69
2022/11/20 01:04:18;;;;;;;51.43;30.27;;;4.10;99.90;;;;;;4993608;28;20682;-68
2022/11/20 01:06:44;;;;;;;56.17;30.67;;;4.20;99.90;;;;;;4993921;28;20171;-68
2022/11/20 01:09:13;;;;;;;52.77;29.73;;;4.20;99.90;;;;;;4993824;28;20222;-68
2022/11/20 01:11:44;;;;;;;57.23;29.63;;;4.40;99.90;;;;;;4993679;28;20183;-69
2022/11/20 01:14:16;;;;;;;60.03;32.47;;;4.40;99.90;;;;;;4993522;28;20655;-70
2022/11/20 01:16:50;;;;;;;56.17;32.63;;;4.50;99.90;;;;;;4993504;28;20175;-69
2022/11/20 01:19:19;;;;;;;56.93;31.03;;;4.40;99.90;;;;;;4993538;28;20639;-69
2022/11/20 01:21:47;;;;;;;58.30;33.03;;;4.40;99.90;;;;;;4993577;28;20178;-69
2022/11/20 01:24:15;;;;;;;61.87;32.60;;;4.50;99.90;;;;;;4993237;28;20243;-69
2022/11/20 01:26:42;;;;;;;59.30;31.13;;;4.50;99.90;;;;;;4992385;28;20186;-69
2022/11/20 01:29:13;;;;;;;54.27;31.40;;;4.40;99.90;;;;;;4993566;28;20179;-69
2022/11/20 01:31:39;;;;;;;63.20;32.67;;;4.30;99.90;;;;;;4993573;28;20172;-69
2022/11/20 01:34:07;;;;;;;64.73;33.63;;;4.40;99.90;;;;;;4993785;28;20205;-69
2022/11/20 01:36:35;;;;;;;67.17;34.23;;;4.40;99.90;;;;;;4993130;28;20234;-69
2022/11/20 01:39:12;;;;;;;60.20;33.43;;;4.30;99.90;;;;;;4993204;28;20176;-69
2022/11/20 01:44:49;;;;;;;57.93;34.27;;;4.20;99.90;;;;;;4993430;28;20777;-69
2022/11/20 01:47:21;;;;;;;65.80;34.80;;;4.20;99.90;;;;;;4992180;28;20175;-68
2022/11/20 01:50:03;;;;;;;59.47;34.53;;;4.30;99.90;;;;;;4993495;28;20171;-70
2022/11/20 01:52:50;;;;;;;62.80;34.43;;;4.30;99.90;;;;;;4993374;28;20179;-69
2022/11/20 01:55:30;;;;;;;63.00;34.20;;;4.20;99.90;;;;;;4993433;28;20196;-69
2022/11/20 01:57:57;;;;;;;58.23;34.20;;;4.30;99.90;;;;;;4993449;28;20175;-68
2022/11/20 02:00:23;;;;;;;56.97;33.73;;;4.40;99.90;;;;;;4995140;28;20187;-69
2022/11/20 02:03:00;;;;;;;68.63;35.47;;;4.50;99.90;;;;;;4995706;28;20226;-69
2022/11/20 02:05:35;;;;;;;54.90;33.13;;;4.60;99.90;;;;;;4995868;28;20205;-70
2022/11/20 02:08:03;;;;;;;65.60;35.70;;;4.80;99.90;;;;;;4996824;28;20665;-69
2022/11/20 02:10:34;;;;;;;57.07;33.70;;;4.70;99.90;;;;;;4996971;28;20167;-69
2022/11/20 02:15:45;;;;;;;64.47;35.97;;;4.60;99.90;;;;;;4996914;28;20182;-69
2022/11/20 02:18:16;;;;;;;67.47;34.50;;;4.50;99.90;;;;;;4996681;28;20179;-68
2022/11/20 02:20:46;;;;;;;63.63;35.67;;;4.40;99.90;;;;;;4996769;28;20199;-70
2022/11/20 02:23:28;;;;;;;63.90;35.57;;;4.40;99.90;;;;;;4996262;28;20179;-70
2022/11/20 02:25:55;;;;;;;65.37;37.40;;;4.50;99.90;;;;;;4995816;28;20191;-69
2022/11/20 02:28:21;;;;;;;67.77;36.47;;;4.60;99.90;;;;;;4996638;28;20171;-70
2022/11/20 02:30:47;;;;;;;67.67;37.03;;;4.70;99.90;;;;;;4996540;28;20175;-70
2022/11/20 02:33:12;;;;;;;67.87;36.17;;;4.70;99.90;;;;;;4995169;28;20261;-69
2022/11/20 02:35:46;;;;;;;56.60;32.23;;;4.60;99.90;;;;;;4996465;28;20178;-69
2022/11/20 02:38:14;;;;;;;55.30;29.97;;;4.50;99.90;;;;;;4995807;28;20223;-69
2022/11/20 02:40:43;;;;;;;50.90;28.83;;;4.40;99.90;;;;;;4996632;28;20176;-70
2022/11/20 02:43:12;;;;;;;49.37;27.33;;;4.50;99.90;;;;;;4996292;28;20167;-69
2022/11/20 02:45:38;;;;;;;50.13;28.73;;;4.40;99.90;;;;;;4996275;28;20269;-69
2022/11/20 02:48:05;;;;;;;52.60;30.07;;;4.40;99.90;;;;;;4996368;28;20182;-69
2022/11/20 02:50:31;;;;;;;52.13;28.80;;;4.40;99.90;;;;;;4995994;28;20175;-69
2022/11/20 02:52:56;;;;;;;49.47;28.63;;;4.40;99.90;;;;;;4995848;28;20299;-69
2022/11/20 02:55:22;;;;;;;48.03;28.03;;;4.40;99.90;;;;;;4996082;28;20176;-69
2022/11/20 02:57:47;;;;;;;47.83;27.20;;;4.50;99.90;;;;;;4994745;28;20188;-69
2022/11/20 03:00:13;;;;;;;48.20;27.63;;;4.50;99.90;;;;;;4996150;28;20238;-68
2022/11/20 03:02:39;;;;;;;48.20;27.60;;;4.60;99.90;;;;;;4995837;28;20206;-69
2022/11/20 03:05:05;;;;;;;47.97;27.50;;;4.60;99.90;;;;;;4994494;28;20211;-69
2022/11/20 03:07:30;;;;;;;44.50;24.67;;;4.50;99.90;;;;;;4994440;28;20193;-69
2022/11/20 03:10:02;;;;;;;45.53;26.50;;;4.40;99.90;;;;;;4995911;28;20568;-69
2022/11/20 03:12:27;;;;;;;47.00;26.47;;;4.30;99.90;;;;;;4994730;28;20719;-69
2022/11/20 03:14:53;;;;;;;45.60;25.67;;;4.30;99.90;;;;;;4995788;28;20183;-70
2022/11/20 03:17:19;;;;;;;44.57;25.80;;;4.40;99.90;;;;;;4995813;28;20532;-69
2022/11/20 03:19:44;;;;;;;43.03;24.90;;;4.50;99.90;;;;;;4994981;28;20179;-70
2022/11/20 03:22:10;;;;;;;44.10;24.20;;;4.40;99.90;;;;;;4995618;28;20194;-69
2022/11/20 03:24:35;;;;;;;44.03;24.17;;;4.40;99.90;;;;;;4995520;28;20210;-70
2022/11/20 03:27:01;;;;;;;43.47;23.50;;;4.40;99.90;;;;;;4994410;28;20168;-69
2022/11/20 03:29:27;;;;;;;43.77;23.57;;;4.40;99.90;;;;;;4994461;28;20538;-70
2022/11/20 03:31:52;;;;;;;44.17;23.73;;;4.50;99.90;;;;;;4995470;28;20164;-70
2022/11/20 03:34:18;;;;;;;42.63;24.57;;;4.50;99.90;;;;;;4994922;28;20639;-69
2022/11/20 03:36:44;;;;;;;42.17;23.63;;;4.30;99.90;;;;;;4995252;28;20222;-69
2022/11/20 03:39:10;;;;;;;45.10;24.67;;;4.40;99.90;;;;;;4995257;28;20222;-69
2022/11/20 03:41:38;;;;;;;43.63;24.37;;;4.50;99.90;;;;;;4995194;28;20172;-70
2022/11/20 03:44:06;;;;;;;41.80;23.67;;;4.60;99.90;;;;;;4995217;28;20303;-70
2022/11/20 03:46:35;;;;;;;43.33;25.07;;;4.70;99.90;;;;;;4995150;28;20206;-70
2022/11/20 03:49:01;;;;;;;44.37;24.40;;;4.70;99.90;;;;;;4994899;28;20241;-70
2022/11/20 03:51:34;;;;;;;45.20;25.20;;;4.70;99.90;;;;;;4995081;28;20527;-70
2022/11/20 03:54:02;;;;;;;39.87;23.10;;;4.90;99.90;;;;;;4995124;28;20176;-70
2022/11/20 03:56:30;;;;;;;40.60;23.60;;;4.80;99.90;;;;;;4994859;28;20167;-70
2022/11/20 03:58:56;;;;;;;43.07;23.40;;;4.80;99.90;;;;;;4994935;28;20254;-69
2022/11/20 04:01:28;;;;;;;42.23;24.00;;;4.90;99.90;;;;;;4994667;28;20191;-68
2022/11/20 04:03:55;;;;;;;45.27;24.53;;;5.00;99.90;;;;;;4994573;28;20257;-70
2022/11/20 04:06:29;;;;;;;46.97;25.03;;;5.10;99.90;;;;;;4994769;28;20217;-69
2022/11/20 04:08:57;;;;;;;44.97;24.07;;;5.00;99.90;;;;;;4994735;28;20639;-69
2022/11/20 04:11:25;;;;;;;50.00;25.03;;;5.10;99.90;;;;;;4994769;28;20185;-70
2022/11/20 04:13:55;;;;;;;45.70;25.00;;;5.10;99.90;;;;;;4994344;28;20176;-69
2022/11/20 04:16:22;;;;;;;45.90;25.20;;;5.10;99.90;;;;;;4993442;28;20167;-69
2022/11/20 04:18:55;;;;;;;42.97;24.40;;;5.20;99.90;;;;;;4994095;28;20647;-69
2022/11/20 04:21:21;;;;;;;50.50;26.30;;;5.10;99.90;;;;;;4994267;28;20167;-70
2022/11/20 04:23:47;;;;;;;49.90;24.67;;;5.10;99.90;;;;;;4993926;28;20207;-70
2022/11/20 04:26:12;;;;;;;55.60;27.50;;;5.20;99.90;;;;;;4992982;28;20179;-70
2022/11/20 04:28:39;;;;;;;51.57;27.33;;;5.30;99.90;;;;;;4994224;28;20167;-69
2022/11/20 04:31:16;;;;;;;50.73;26.70;;;5.40;99.90;;;;;;4994087;28;20201;-70
2022/11/20 04:33:45;;;;;;;52.63;27.03;;;5.40;99.90;;;;;;4993647;28;20170;-71
2022/11/20 04:36:19;;;;;;;60.00;27.97;;;5.40;99.90;;;;;;4993977;28;20235;-69
2022/11/20 04:38:45;;;;;;;61.07;28.73;;;5.40;99.90;;;;;;4993817;28;20174;-70
2022/11/20 04:41:18;;;;;;;55.73;27.37;;;5.30;99.90;;;;;;4993788;28;20279;-69
2022/11/20 04:43:58;;;;;;;55.37;27.60;;;5.20;99.90;;;;;;4992320;28;20183;-71
2022/11/20 04:46:25;;;;;;;57.60;27.87;;;5.20;99.90;;;;;;4993822;28;20194;-70
2022/11/20 04:48:51;;;;;;;56.10;28.53;;;5.20;99.90;;;;;;4992109;28;20167;-69
2022/11/20 04:51:17;;;;;;;58.47;28.63;;;5.20;99.90;;;;;;4993249;28;20274;-70
2022/11/20 04:53:42;;;;;;;59.70;28.77;;;5.30;99.90;;;;;;4992601;28;20201;-70
2022/11/20 04:56:11;;;;;;;60.93;29.20;;;5.40;99.90;;;;;;4994013;28;20274;-69
2022/11/20 04:58:37;;;;;;;62.60;30.77;;;5.40;99.90;;;;;;4993637;28;20171;-70
2022/11/20 05:01:14;;;;;;;59.43;28.73;;;5.50;99.90;;;;;;4993916;28;20202;-70
2022/11/20 05:03:41;;;;;;;58.40;27.93;;;5.40;99.90;;;;;;4992267;28;20252;-69
2022/11/20 05:06:10;;;;;;;60.90;29.30;;;5.50;99.90;;;;;;4992323;28;20171;-70
2022/11/20 05:08:35;;;;;;;57.13;29.00;;;5.60;99.90;;;;;;4993739;28;20174;-70
2022/11/20 05:11:09;;;;;;;65.77;30.17;;;5.50;99.90;;;;;;4993656;28;20171;-70
2022/11/20 05:13:35;;;;;;;59.97;30.03;;;5.60;99.90;;;;;;4993443;28;20230;-70
2022/11/20 05:16:10;;;;;;;62.23;30.43;;;5.60;99.90;;;;;;4992017;28;20201;-70
2022/11/20 05:18:36;;;;;;;63.23;30.23;;;5.60;99.90;;;;;;4993656;28;20237;-69
2022/11/20 05:21:02;;;;;;;61.90;29.40;;;5.60;99.90;;;;;;4993572;28;20175;-71
2022/11/20 05:23:32;;;;;;;59.00;28.20;;;5.60;99.90;;;;;;4993325;28;20222;-70
2022/11/20 05:26:01;;;;;;;59.63;29.87;;;5.50;99.90;;;;;;4993791;28;20175;-69
2022/11/20 05:28:29;;;;;;;66.50;30.23;;;5.70;99.90;;;;;;4992378;28;20174;-70
2022/11/20 05:30:54;;;;;;;58.43;28.67;;;5.70;99.90;;;;;;4991633;28;20179;-69
2022/11/20 05:33:23;;;;;;;61.93;29.53;;;5.60;99.90;;;;;;4993189;28;20194;-71
2022/11/20 05:35:49;;;;;;;57.50;29.00;;;5.70;99.90;;;;;;4996211;28;20172;-70
2022/11/20 05:38:15;;;;;;;62.43;29.27;;;5.70;99.90;;;;;;4997159;28;20226;-70
2022/11/20 05:40:43;;;;;;;63.97;31.27;;;5.80;99.90;;;;;;4997339;28;20194;-70
2022/11/20 05:43:09;;;;;;;61.83;31.50;;;5.90;99.90;;;;;;4997028;28;20177;-69
2022/11/20 05:45:35;;;;;;;64.40;30.40;;;6.00;99.90;;;;;;4996806;28;20210;-70
2022/11/20 05:48:04;;;;;;;62.40;30.43;;;6.10;99.90;;;;;;4997236;28;20210;-70
2022/11/20 05:50:29;;;;;;;63.63;30.03;;;6.00;99.90;;;;;;4996756;28;20183;-71
2022/11/20 05:52:59;;;;;;;64.87;30.57;;;6.00;99.90;;;;;;4997072;28;20179;-71
2022/11/20 05:55:25;;;;;;;64.47;29.70;;;6.00;99.90;;;;;;4996791;28;20176;-69
2022/11/20 05:57:53;;;;;;;68.67;31.60;;;6.00;99.90;;;;;;4997168;28;20182;-70
2022/11/20 06:00:19;;;;;;;59.90;29.37;;;6.00;99.90;;;;;;4996634;28;20172;-70
2022/11/20 06:02:44;;;;;;;65.33;30.13;;;6.00;99.90;;;;;;4996877;28;20250;-70
2022/11/20 06:05:10;;;;;;;63.30;30.20;;;5.90;99.90;;;;;;4996774;28;20682;-71
2022/11/20 06:07:35;;;;;;;64.03;30.73;;;5.90;99.90;;;;;;4997376;28;20163;-70
2022/11/20 06:10:02;;;;;;;60.97;27.37;;;5.90;99.90;;;;;;4996277;28;20243;-69
2022/11/20 06:12:27;;;;;;;58.77;28.67;;;5.90;99.90;;;;;;4996400;28;20658;-70
2022/11/20 06:14:53;;;;;;;59.60;28.93;;;5.80;99.90;;;;;;4996125;28;20179;-69
2022/11/20 06:17:19;;;;;;;62.40;29.70;;;5.90;99.90;;;;;;4996636;28;20655;-71
2022/11/20 06:19:44;;;;;;;60.23;28.53;;;5.90;99.90;;;;;;4996677;28;20533;-70
2022/11/20 06:22:10;;;;;;;63.17;29.63;;;5.90;99.90;;;;;;4995396;28;20179;-71
2022/11/20 06:24:36;;;;;;;64.07;29.23;;;5.80;99.90;;;;;;4996427;28;20207;-70
2022/11/20 06:27:02;;;;;;;65.43;29.20;;;5.80;99.90;;;;;;4996516;28;20532;-69
2022/11/20 06:29:28;;;;;;;67.70;28.97;;;5.80;99.90;;;;;;4994400;28;20624;-71
2022/11/20 06:31:54;;;;;;;64.90;30.57;;;5.80;99.90;;;;;;4995943;28;20175;-70
2022/11/20 06:34:19;;;;;;;77.47;32.77;;;5.80;99.90;;;;;;4996429;28;20175;-70
2022/11/20 06:36:45;;;;;;;61.07;29.73;;;5.80;99.90;;;;;;4995853;28;20235;-70
2022/11/20 06:39:11;;;;;;;65.07;29.93;;;5.90;99.90;;;;;;4996489;28;20242;-70
2022/11/20 06:41:36;;;;;;;72.73;31.53;;;5.80;99.90;;;;;;4996185;28;20341;-70
2022/11/20 06:44:05;;;;;;;66.03;30.23;;;5.90;99.90;;;;;;4995678;28;20213;-70
2022/11/20 06:46:31;;;;;;;79.47;36.23;;;6.00;99.90;;;;;;4994591;28;20175;-69
2022/11/20 06:48:57;;;;;;;60.57;29.37;;;6.00;99.90;;;;;;4995758;28;20234;-70
2022/11/20 06:51:26;;;;;;;64.67;28.77;;;6.10;99.90;;;;;;4996188;28;20615;-70
2022/11/20 06:53:52;;;;;;;60.73;28.60;;;6.10;99.90;;;;;;4995999;28;20175;-71
2022/11/20 06:56:18;;;;;;;59.33;28.60;;;6.00;99.90;;;;;;4995350;28;20163;-71
2022/11/20 06:58:44;;;;;;;58.87;27.90;;;6.00;99.90;;;;;;4995133;28;20189;-70
2022/11/20 07:01:12;;;;;;;62.50;27.73;;;6.00;99.90;;;;;;4995791;28;20241;-71
2022/11/20 07:03:41;;;;;;;57.27;26.83;;;6.00;99.90;;;;;;4995878;28;20180;-71
2022/11/20 07:06:07;;;;;;;61.37;27.93;;;5.90;99.90;;;;;;4995832;28;20191;-70
2022/11/20 07:08:33;;;;;;;57.50;27.47;;;6.00;99.90;;;;;;4995769;28;20179;-70
2022/11/20 07:11:04;;;;;;;64.73;29.60;;;6.10;99.90;;;;;;4995612;28;20611;-70
2022/11/20 07:13:31;;;;;;;61.63;28.67;;;6.30;99.90;;;;;;4994954;28;20326;-70
2022/11/20 07:16:05;;;;;;;57.07;29.03;;;6.30;99.90;;;;;;4995621;28;20171;-70
2022/11/20 07:18:30;;;;;;;59.07;29.00;;;6.30;99.90;;;;;;4995729;28;20282;-70
2022/11/20 07:20:59;;;;;;;52.70;26.53;;;6.40;99.90;;;;;;4995222;28;20621;-70
2022/11/20 07:23:25;;;;;;;57.40;27.83;;;6.30;99.90;;;;;;4995025;28;20202;-71
2022/11/20 07:25:50;;;;;;;57.73;27.83;;;6.40;99.90;;;;;;4995087;28;20214;-70
2022/11/20 07:28:16;;;;;;;52.83;27.63;;;6.40;99.90;;;;;;4994854;28;20626;-70
2022/11/20 07:30:42;;;;;;;56.40;27.10;;;6.40;99.90;;;;;;4995236;28;20179;-70
2022/11/20 07:33:10;;;;;;;60.77;29.57;;;6.50;99.90;;;;;;4993517;28;20694;-71
2022/11/20 07:35:36;;;;;;;61.17;28.97;;;6.60;99.90;;;;;;4994882;28;20182;-70
2022/11/20 07:38:01;;;;;;;57.73;27.60;;;6.50;99.90;;;;;;4994628;28;20691;-70
2022/11/20 07:40:27;;;;;;;55.73;27.27;;;6.60;99.90;;;;;;4993282;28;20249;-70
2022/11/20 07:42:55;;;;;;;52.60;25.13;;;6.60;99.90;;;;;;4994539;28;20195;-71
2022/11/20 07:45:23;;;;;;;59.20;26.43;;;6.70;99.90;;;;;;4994732;28;20683;-70
2022/11/20 07:47:48;;;;;;;54.83;26.13;;;6.70;99.90;;;;;;4994450;28;20230;-70
2022/11/20 07:50:15;;;;;;;52.30;24.63;;;6.90;99.90;;;;;;4994085;28;20175;-71
2022/11/20 07:52:43;;;;;;;54.03;24.83;;;6.90;99.90;;;;;;4994378;28;20179;-70
2022/11/20 07:55:10;;;;;;;51.20;24.27;;;6.90;99.90;;;;;;4994557;28;20183;-69
2022/11/20 07:57:36;;;;;;;58.13;25.20;;;6.90;99.90;;;;;;4993579;28;20171;-70
2022/11/20 08:00:07;;;;;;;57.57;23.60;;;6.90;99.90;;;;;;4994676;28;20174;-69
2022/11/20 08:02:32;;;;;;;58.87;24.57;;;6.90;99.90;;;;;;4993858;28;20337;-70
2022/11/20 08:04:58;;;;;;;55.77;24.83;;;6.80;99.90;;;;;;4994659;28;20282;-71
2022/11/20 08:07:23;;;;;;;53.27;24.00;;;6.70;99.90;;;;;;4994820;28;20175;-70
2022/11/20 08:09:52;;;;;;;51.67;24.30;;;6.70;99.90;;;;;;4994336;28;20175;-70
2022/11/20 08:15:08;;;;;;;57.37;25.03;;;6.70;99.90;;;;;;4994769;28;20221;-71
2022/11/20 08:17:33;;;;;;;55.80;25.00;;;6.80;99.90;;;;;;4994443;28;20266;-70
2022/11/20 08:20:03;;;;;;;54.47;25.27;;;6.80;99.90;;;;;;4994057;28;20245;-70
2022/11/20 08:22:28;;;;;;;56.93;25.53;;;6.90;99.90;;;;;;4994375;28;20171;-70
2022/11/20 08:24:54;;;;;;;54.50;25.80;;;7.00;99.90;;;;;;4993750;28;20341;-69
2022/11/20 08:27:20;;;;;;;53.93;25.20;;;7.00;99.90;;;;;;4992789;28;20246;-70
2022/11/20 08:29:45;;;;;;;54.93;25.57;;;7.10;99.90;;;;;;4994229;28;20175;-71
2022/11/20 08:32:11;;;;;;;53.33;26.07;;;7.20;99.90;;;;;;4994031;28;20171;-71
2022/11/20 08:34:36;;;;;;;58.40;26.33;;;7.30;99.90;;;;;;4994186;28;20190;-70
2022/11/20 08:37:02;;;;;;;54.10;24.80;;;7.30;99.90;;;;;;4993878;28;20215;-70
2022/11/20 08:39:31;;;;;;;52.13;24.50;;;7.40;99.90;;;;;;4993309;28;20187;-70
2022/11/20 08:41:56;;;;;;;53.27;25.37;;;7.50;99.90;;;;;;4993823;28;20171;-70
2022/11/20 08:44:22;;;;;;;55.53;25.43;;;7.50;99.90;;;;;;4993505;28;20211;-71
2022/11/20 08:46:48;;;;;;;54.80;26.57;;;7.50;99.90;;;;;;4992140;28;20320;-71
2022/11/20 08:49:17;;;;;;;52.37;25.13;;;7.50;99.90;;;;;;4993527;28;20194;-70
2022/11/20 08:51:43;;;;;;;58.20;25.23;;;7.50;99.90;;;;;;4993729;28;20167;-70
2022/11/20 08:54:12;;;;;;;55.83;25.73;;;7.50;99.90;;;;;;4992921;28;20175;-70
2022/11/20 08:56:37;;;;;;;48.53;23.63;;;7.60;99.90;;;;;;4993136;28;20631;-70
2022/11/20 08:59:03;;;;;;;50.67;25.33;;;7.70;99.90;;;;;;4993401;28;20225;-72
2022/11/20 09:01:29;;;;;;;56.97;24.83;;;7.80;99.90;;;;;;4992628;28;20198;-71
2022/11/20 09:03:59;;;;;;;48.73;23.80;;;7.80;99.90;;;;;;4993633;28;20591;-70
2022/11/20 09:06:24;;;;;;;48.50;24.37;;;7.90;99.90;;;;;;4993665;28;20199;-71
2022/11/20 09:08:53;;;;;;;50.87;24.90;;;7.90;99.90;;;;;;4992937;28;20199;-70
2022/11/20 09:11:22;;;;;;;45.43;22.73;;;8.00;99.90;;;;;;4992952;28;20171;-70
2022/11/20 09:13:48;;;;;;;49.17;23.60;;;8.10;99.90;;;;;;4993249;28;20225;-70
2022/11/20 09:16:13;;;;;;;48.70;22.93;;;8.10;99.90;;;;;;4993351;28;20175;-70
2022/11/20 09:18:39;;;;;;;48.53;22.63;;;8.20;99.90;;;;;;4991917;28;20639;-71
2022/11/20 09:21:11;;;;;;;40.20;22.53;;;8.20;99.90;;;;;;4993076;28;20167;-70
2022/11/20 09:23:38;;;;;;;46.63;22.33;;;8.20;99.90;;;;;;4992875;28;20182;-69
2022/11/20 09:26:21;;;;;;;42.00;22.77;;;8.20;99.90;;;;;;4993700;28;20279;-72
2022/11/20 09:28:47;;;;;;;39.10;21.87;;;8.20;99.90;;;;;;4992964;28;20298;-70
2022/11/20 09:31:22;;;;;;;48.00;23.43;;;8.30;99.90;;;;;;4992960;28;20195;-69
2022/11/20 09:33:48;;;;;;;42.90;21.17;;;8.40;99.90;;;;;;4993491;28;20163;-69
2022/11/20 09:36:14;;;;;;;44.20;21.83;;;8.50;99.90;;;;;;4992610;28;20210;-69
2022/11/20 09:38:39;;;;;;;38.07;21.10;;;8.60;99.90;;;;;;4992302;28;20203;-70
2022/11/20 09:41:06;;;;;;;38.27;19.90;;;8.70;99.90;;;;;;4992521;28;20175;-70
2022/11/20 09:43:32;;;;;;;37.03;20.60;;;8.70;99.90;;;;;;4993109;28;20246;-70
2022/11/20 09:46:25;;;;;;;38.13;21.47;;;8.80;99.90;;;;;;4992889;28;20290;-69
2022/11/20 09:48:59;;;;;;;35.13;19.03;;;9.00;99.90;;;;;;4992018;28;20163;-69
2022/11/20 09:51:31;;;;;;;38.50;20.40;;;9.00;99.90;;;;;;4992189;28;20167;-68
2022/11/20 09:54:18;;;;;;;32.40;18.07;;;9.00;99.90;;;;;;4991491;28;20266;-70
2022/11/20 09:57:03;;;;;;;34.23;19.30;;;9.10;99.90;;;;;;4992720;28;20261;-69
2022/11/20 09:59:49;;;;;;;28.83;16.90;;;9.10;99.90;;;;;;4993018;28;20167;-70
2022/11/20 10:02:21;;;;;;;32.20;17.80;;;9.20;99.90;;;;;;4992892;28;20528;-69
2022/11/20 10:04:55;;;;;;;29.27;16.87;;;9.30;99.90;;;;;;4992364;28;20224;-69
2022/11/20 10:07:30;;;;;;;29.97;17.10;;;9.30;99.90;;;;;;4992742;28;20593;-70
2022/11/20 10:09:57;;;;;;;26.57;15.80;;;9.40;99.90;;;;;;4992840;28;20198;-70
2022/11/20 10:12:26;;;;;;;28.77;16.50;;;9.40;99.90;;;;;;4991231;28;20174;-69
2022/11/20 10:15:22;;;;;;;26.63;15.90;;;9.40;99.90;;;;;;4992747;28;20167;-70
2022/11/20 10:18:16;;;;;;;26.10;15.43;;;9.50;99.90;;;;;;4992823;28;20195;-70
2022/11/20 10:21:24;;;;;;;23.57;13.90;;;9.60;99.90;;;;;;4993147;28;20234;-70
2022/11/20 10:24:10;;;;;;;23.43;13.63;;;9.60;99.90;;;;;;4974557;28;20183;-70
2022/11/20 10:27:11;;;;;;;21.60;11.37;;;9.60;99.90;;;;;;4974366;28;20172;-69
2022/11/20 10:29:39;;;;;;;40.33;31.43;;;9.60;99.90;;;;;;4917265;29;20190;-70
2022/11/20 10:32:14;;;;;;;18.00;11.33;;;9.60;99.90;;;;;;4917069;29;20241;-70
2022/11/20 10:35:04;;;;;;;41.90;36.13;;;9.80;99.90;;;;;;4916776;29;20661;-69
2022/11/20 10:37:32;;;;;;;16.03;10.37;;;10.00;99.90;;;;;;4916608;29;20277;-68
2022/11/20 10:40:31;;;;;;;23.77;16.20;;;10.20;99.90;;;;;;4916611;29;20227;-69
2022/11/20 10:43:00;;;;;;;13.63;8.80;;;10.50;99.90;;;;;;4917078;29;20182;-69
2022/11/20 10:45:29;;;;;;;16.87;12.03;;;10.50;99.90;;;;;;4916882;29;20670;-69
2022/11/20 10:48:07;;;;;;;13.73;9.17;;;10.60;99.90;;;;;;4916782;29;20186;-69
2022/11/20 10:50:38;;;;;;;26.90;17.63;;;10.60;99.90;;;;;;4916600;29;20210;-69
2022/11/20 10:53:18;;;;;;;12.27;7.10;;;10.60;99.90;;;;;;4917198;29;20339;-69
2022/11/20 10:56:00;;;;;;;11.27;6.60;;;10.50;99.90;;;;;;4916665;29;20645;-69
2022/11/20 10:58:33;;;;;;;11.43;8.30;;;10.60;99.90;;;;;;4915607;29;20174;-69
2022/11/20 11:01:26;;;;;;;29.93;26.63;;;10.70;99.90;;;;;;4927593;29;20192;-70
2022/11/20 11:03:53;;;;;;;12.63;6.40;;;10.70;99.90;;;;;;4917774;29;20188;-71
2022/11/20 11:06:34;;;;;;;9.10;6.67;;;10.70;99.90;;;;;;4962792;28;20183;-70
2022/11/20 11:09:11;;;;;;;10.07;5.63;;;10.60;99.90;;;;;;4995494;28;20179;-69
2022/11/20 11:11:38;;;;;;;9.03;6.33;;;10.50;99.90;;;;;;4993481;28;20201;-70
2022/11/20 11:14:10;;;;;;;33.87;22.23;;;10.60;99.90;;;;;;4995439;28;20171;-68
2022/11/20 11:16:40;;;;;;;14.77;8.83;;;10.60;99.90;;;;;;4995107;28;20159;-69
2022/11/20 11:19:17;;;;;;;11.77;7.40;;;10.60;99.90;;;;;;4994883;28;20171;-69
2022/11/20 11:21:55;;;;;;;12.40;8.47;;;10.50;99.90;;;;;;4995182;28;20662;-70
2022/11/20 11:24:23;;;;;;;12.20;9.60;;;10.60;99.90;;;;;;4995649;28;20221;-72
2022/11/20 11:27:12;;;;;;;37.30;27.97;;;10.60;99.90;;;;;;4995189;28;20225;-69
2022/11/20 11:29:38;;;;;;;169.00;131.13;;;10.60;99.90;;;;;;4995084;28;20188;-70
2022/11/20 11:32:07;;;;;;;30.57;22.63;;;10.40;99.90;;;;;;4992913;28;20532;-68
2022/11/20 11:34:33;;;;;;;10.87;5.93;;;10.40;99.90;;;;;;4993999;28;20203;-70
2022/11/20 11:37:00;;;;;;;20.07;12.87;;;10.50;99.90;;;;;;4994950;28;20258;-69
2022/11/20 11:39:28;;;;;;;9.27;5.23;;;10.50;99.90;;;;;;4994646;28;20226;-69
2022/11/20 11:41:58;;;;;;;13.23;7.87;;;10.40;99.90;;;;;;4995007;28;20699;-69
2022/11/20 11:47:25;;;;;;;10.43;7.20;;;10.30;99.90;;;;;;4994442;28;20530;-68
2022/11/20 11:50:09;;;;;;;20.57;18.13;;;10.30;99.90;;;;;;4994687;28;20184;-69
2022/11/20 11:53:02;;;;;;;10.93;9.20;;;10.30;99.90;;;;;;4993539;28;20264;-69
2022/11/20 11:55:37;;;;;;;8.80;4.47;;;10.30;99.90;;;;;;4993889;28;20171;-70
2022/11/20 11:58:25;;;;;;;7.60;4.40;;;10.20;99.90;;;;;;4993929;28;20178;-69
2022/11/20 12:01:10;;;;;;;8.73;7.63;;;10.20;99.90;;;;;;4994431;28;20182;-69
2022/11/20 12:03:38;;;;;;;10.00;6.73;;;10.10;99.90;;;;;;4993010;28;20230;-70
2022/11/20 12:06:13;;;;;;;12.40;5.13;;;10.10;99.90;;;;;;4994149;28;20670;-69
2022/11/20 12:08:41;;;;;;;8.63;4.63;;;10.00;99.90;;;;;;4994135;28;20305;-69
2022/11/20 12:11:10;;;;;;;7.23;4.07;;;9.90;99.90;;;;;;4993973;28;20210;-69
2022/11/20 12:13:58;;;;;;;8.53;4.83;;;9.70;99.90;;;;;;4994386;28;20164;-70
2022/11/20 12:16:24;;;;;;;9.27;7.03;;;9.50;99.90;;;;;;4994199;28;20175;-69
2022/11/20 12:18:52;;;;;;;9.10;4.60;;;9.40;99.90;;;;;;4992599;28;20270;-70
2022/11/20 12:21:48;;;;;;;5.57;4.30;;;9.30;99.90;;;;;;4993209;28;20206;-71
2022/11/20 12:24:34;;;;;;;12.07;5.20;;;9.30;99.90;;;;;;4989124;28;20219;-70
2022/11/20 12:27:09;;;;;;;9.77;5.60;;;9.20;99.90;;;;;;4992611;28;20175;-71
2022/11/20 12:29:57;;;;;;;8.70;4.43;;;8.90;99.90;;;;;;4993704;28;20579;-69
2022/11/20 12:32:41;;;;;;;11.60;9.97;;;8.90;99.90;;;;;;4993676;28;20270;-71
2022/11/20 12:35:43;;;;;;;8.77;5.07;;;8.80;99.90;;;;;;4992460;28;20186;-69
2022/11/20 12:38:27;;;;;;;9.03;4.93;;;8.80;99.90;;;;;;4993236;28;20222;-69
2022/11/20 12:41:11;;;;;;;9.47;6.00;;;8.90;99.90;;;;;;4993654;28;20186;-70
2022/11/20 12:46:42;;;;;;;8.70;4.63;;;8.90;99.90;;;;;;4993364;28;20213;-70
2022/11/20 12:49:26;;;;;;;9.90;5.10;;;8.90;99.90;;;;;;4993333;28;20167;-68
2022/11/20 12:52:18;;;;;;;8.33;5.27;;;9.00;99.90;;;;;;4993796;28;20193;-70
2022/11/20 12:55:08;;;;;;;6.47;4.57;;;9.10;99.90;;;;;;4971463;28;20179;-70
2022/11/20 12:57:36;;;;;;;24.43;21.83;;;9.10;99.90;;;;;;4971593;28;20175;-69
2022/11/20 13:00:20;;;;;;;9.93;4.63;;;9.10;99.90;;;;;;4971826;28;20180;-70
2022/11/20 13:02:58;;;;;;;18.77;15.67;;;9.20;99.90;;;;;;4971626;28;20738;-70
2022/11/20 13:06:01;;;;;;;8.77;4.27;;;9.10;99.90;;;;;;4971976;28;20373;-69
2022/11/20 13:08:36;;;;;;;152.27;131.37;;;9.20;99.90;;;;;;4971375;28;20542;-69